Time;durP1;ratioP1;P1;durP2;ratioP2;P2;SDS_P1;SDS_P2;PMS_P1;PMS_P2;Temp;Humidity;BMP_temperature;BMP_pressure;BME280_temperature;BME280_humidity;BME280_pressure;Samples;Min_cycle;Max_cycle;Signal;HPM_P1;HPM_P2
2022/12/24 00:03:16;;;;;;;6.80;2.70;;;;;;;16.41;46.99;99059.66;10364261;28;20229;-40
2022/12/24 00:08:19;;;;;;;10.77;3.10;;;;;;;16.31;48.21;99059.47;10353815;28;20565;-42
2022/12/24 00:13:21;;;;;;;12.23;3.13;;;;;;;16.76;46.99;99018.16;10362749;28;20233;-39
2022/12/24 00:18:23;;;;;;;10.73;3.53;;;;;;;15.04;49.30;99057.16;10361991;28;20311;-41
2022/12/24 00:23:25;;;;;;;9.87;3.40;;;;;;;15.53;49.82;99075.84;10365774;28;20248;-42
2022/12/24 00:28:27;;;;;;;12.27;4.10;;;;;;;14.98;51.56;99090.41;10376596;23;20230;-37
2022/12/24 00:33:28;;;;;;;12.30;4.23;;;;;;;15.59;50.34;99077.66;10399345;28;20255;-36
2022/12/24 00:38:30;;;;;;;15.63;3.60;;;;;;;15.64;50.43;99072.38;10394924;28;20241;-36
2022/12/24 00:43:32;;;;;;;11.13;3.27;;;;;;;15.97;50.30;99091.69;10392359;28;20236;-36
2022/12/24 00:48:33;;;;;;;7.50;3.40;;;;;;;16.21;48.88;99087.88;10383719;28;20237;-37
2022/12/24 00:53:35;;;;;;;10.10;3.27;;;;;;;16.15;48.96;99105.03;10390189;28;20248;-36
2022/12/24 00:58:37;;;;;;;10.17;3.17;;;;;;;15.38;49.48;99161.75;10392672;28;20243;-36
2022/12/24 01:03:39;;;;;;;6.07;3.53;;;;;;;14.49;50.48;99140.78;10397115;28;20232;-36
2022/12/24 01:08:41;;;;;;;8.93;3.37;;;;;;;15.63;48.79;99164.28;10391209;28;20236;-36
2022/12/24 01:13:43;;;;;;;8.23;3.00;;;;;;;16.10;48.24;99171.56;10390763;28;20439;-36
2022/12/24 01:18:45;;;;;;;9.63;3.43;;;;;;;16.12;47.94;99148.66;10392825;28;20236;-36
2022/12/24 01:23:47;;;;;;;9.30;3.17;;;;;;;15.36;48.87;99186.25;10391960;28;20237;-37
2022/12/24 01:28:49;;;;;;;8.73;3.37;;;;;;;16.10;47.47;99166.97;10390984;28;20255;-36
2022/12/24 01:33:51;;;;;;;8.53;2.77;;;;;;;15.15;49.01;99217.25;10395493;28;20759;-37
2022/12/24 01:38:52;;;;;;;9.87;3.30;;;;;;;16.44;47.44;99199.59;10396669;28;20225;-36
2022/12/24 01:43:54;;;;;;;7.07;3.23;;;;;;;16.11;47.43;99195.63;10393154;28;20232;-37
2022/12/24 01:49:00;;;;;;;9.87;3.27;;;;;;;16.28;47.51;99238.09;10391158;28;20228;-37
2022/12/24 01:54:14;;;;;;;9.53;3.07;;;;;;;16.39;46.69;99213.81;10390651;28;20320;-36
2022/12/24 01:59:18;;;;;;;10.27;3.10;;;;;;;14.37;49.65;99226.84;10391178;28;20813;-37
2022/12/24 02:04:46;;;;;;;11.93;3.40;;;;;;;15.00;49.91;99228.41;10362419;28;20307;-37
2022/12/24 02:09:54;;;;;;;7.70;2.97;;;;;;;14.33;50.95;99229.16;10392982;28;20282;-37
2022/12/24 02:14:58;;;;;;;7.27;3.40;;;;;;;13.65;52.49;99224.56;10398379;28;20243;-36
2022/12/24 02:20:21;;;;;;;8.60;3.37;;;;;;;14.58;50.59;99236.34;10396254;28;20233;-37
2022/12/24 02:26:03;;;;;;;15.70;4.80;;;;;;;14.86;49.85;99227.75;10397860;28;20235;-37
2022/12/24 02:31:12;;;;;;;7.33;3.53;;;;;;;14.40;51.59;99234.47;10402766;28;20237;-37
2022/12/24 02:36:24;;;;;;;12.43;3.33;;;;;;;16.00;47.33;99172.97;10397422;28;20240;-37
2022/12/24 02:42:04;;;;;;;8.33;3.50;;;;;;;16.50;47.39;99151.91;10379419;28;20252;-36
2022/12/24 02:46:58;;;;;;;9.03;3.30;;;;;;;16.56;46.57;99157.16;10397235;28;20311;-36
2022/12/24 02:52:00;;;;;;;13.63;3.47;;;;;;;15.56;48.17;99228.28;10396262;28;20232;-37
2022/12/24 02:57:16;;;;;;;10.77;3.30;;;;;;;16.13;46.33;99200.75;10395351;28;20817;-37
2022/12/24 03:02:56;;;;;;;11.37;3.70;;;;;;;17.34;45.16;99191.88;10394660;28;20235;-37
2022/12/24 03:08:01;;;;;;;11.97;2.97;;;;;;;17.21;44.31;99190.31;10278774;28;20238;-37
2022/12/24 03:13:23;;;;;;;10.07;3.30;;;;;;;16.64;46.39;99247.81;10377684;28;20754;-36
2022/12/24 03:18:26;;;;;;;11.87;3.40;;;;;;;17.81;44.65;99196.22;10395406;28;20596;-37
2022/12/24 03:23:28;;;;;;;14.33;3.43;;;;;;;16.01;46.75;99254.72;10395263;28;20232;-36
2022/12/24 03:28:30;;;;;;;15.57;4.37;;;;;;;17.24;45.46;99197.13;10400528;28;20346;-37
2022/12/24 03:33:32;;;;;;;12.23;4.07;;;;;;;16.91;45.67;99239.19;10402239;28;20246;-37
2022/12/24 03:38:34;;;;;;;10.03;3.10;;;;;;;16.34;46.91;99272.28;10392575;28;20269;-36
2022/12/24 03:43:36;;;;;;;13.77;3.20;;;;;;;16.72;46.76;99260.13;10403648;28;20244;-37
2022/12/24 03:48:38;;;;;;;13.60;4.40;;;;;;;16.71;46.70;99256.59;10403873;28;20236;-36
2022/12/24 03:53:39;;;;;;;8.83;3.00;;;;;;;16.31;46.57;99262.75;10409644;28;20275;-37
2022/12/24 03:58:41;;;;;;;13.87;3.93;;;;;;;16.58;45.63;99246.06;10402246;28;20248;-36
2022/12/24 04:03:43;;;;;;;14.00;4.10;;;;;;;16.07;46.72;99295.09;10403707;28;20373;-36
2022/12/24 04:08:45;;;;;;;11.60;3.70;;;;;;;15.95;46.69;99305.06;10400698;28;20245;-37
2022/12/24 04:13:46;;;;;;;13.80;4.10;;;;;;;15.95;46.55;99294.28;10400458;28;20641;-37
2022/12/24 04:18:49;;;;;;;12.30;4.20;;;;;;;16.43;46.05;99309.50;10401726;28;20236;-36
2022/12/24 04:23:50;;;;;;;17.10;3.93;;;;;;;15.90;46.51;99298.72;10403927;28;20736;-37
2022/12/24 04:28:52;;;;;;;13.93;3.57;;;;;;;16.21;46.01;99316.47;10399275;28;20244;-36
2022/12/24 04:33:54;;;;;;;12.20;4.00;;;;;;;15.80;46.50;99318.97;10403053;28;20240;-36
2022/12/24 04:38:55;;;;;;;17.10;4.33;;;;;;;16.18;46.22;99311.53;10401101;28;20324;-36
2022/12/24 04:43:58;;;;;;;14.77;4.10;;;;;;;16.15;46.32;99314.72;10402882;28;20248;-36
2022/12/24 04:48:59;;;;;;;12.23;3.40;;;;;;;14.85;47.53;99325.78;10400048;28;20247;-37
2022/12/24 04:54:01;;;;;;;10.13;3.23;;;;;;;15.56;46.33;99345.06;10400564;28;20233;-36
2022/12/24 04:59:03;;;;;;;15.43;4.00;;;;;;;16.49;45.23;99299.63;10397753;28;20323;-36
2022/12/24 05:04:05;;;;;;;16.27;3.67;;;;;;;16.06;45.63;99355.56;10402873;28;20233;-37
2022/12/24 05:09:07;;;;;;;10.87;3.50;;;;;;;15.07;46.64;99309.16;10399788;28;20332;-37
2022/12/24 05:14:09;;;;;;;12.37;3.60;;;;;;;15.29;46.33;99331.91;10408234;28;20244;-36
2022/12/24 05:19:11;;;;;;;12.97;3.70;;;;;;;15.32;45.78;99325.25;10383753;28;20232;-36
2022/12/24 05:29:33;;;;;;;10.40;4.07;;;;;;;15.82;46.48;99330.34;10400430;28;20256;-36
2022/12/24 05:34:34;;;;;;;13.50;3.53;;;;;;;15.78;45.67;99331.06;10396254;28;20272;-37
2022/12/24 05:39:36;;;;;;;12.67;4.13;;;;;;;15.62;46.29;99337.91;10383505;28;20240;-36
2022/12/24 05:44:38;;;;;;;11.97;3.27;;;;;;;16.95;43.69;99284.41;10394019;28;20267;-36
2022/12/24 05:49:39;;;;;;;15.67;4.10;;;;;;;15.31;45.66;99345.97;10382878;28;20232;-36
2022/12/24 05:54:42;;;;;;;13.17;4.43;;;;;;;16.57;44.42;99342.47;10392960;28;20260;-37
2022/12/24 05:59:44;;;;;;;10.57;3.97;;;;;;;15.74;45.77;99387.34;10395103;28;20842;-37
2022/12/24 06:04:46;;;;;;;15.73;3.73;;;;;;;16.19;44.76;99359.91;10391133;28;20239;-37
2022/12/24 06:09:48;;;;;;;14.10;4.67;;;;;;;16.01;44.93;99384.25;10394133;28;20252;-37
2022/12/24 06:14:50;;;;;;;11.03;3.07;;;;;;;15.41;45.52;99385.06;10392369;28;20247;-36
2022/12/24 06:19:51;;;;;;;11.37;4.30;;;;;;;15.64;45.71;99398.69;10395476;28;20319;-37
2022/12/24 06:24:53;;;;;;;11.93;2.97;;;;;;;15.25;45.82;99398.09;10383717;28;20232;-36
2022/12/24 06:29:55;;;;;;;13.80;4.03;;;;;;;15.93;45.10;99401.63;10410934;22;20258;-38
2022/12/24 06:34:57;;;;;;;13.70;3.80;;;;;;;16.18;44.85;99396.06;10390750;28;20319;-38
2022/12/24 06:39:59;;;;;;;13.87;3.93;;;;;;;16.18;44.21;99416.81;10395336;28;20236;-39
2022/12/24 06:45:01;;;;;;;12.87;4.00;;;;;;;16.43;44.28;99368.06;10391456;28;20612;-39
2022/12/24 06:50:09;;;;;;;14.80;4.37;;;;;;;15.83;45.18;99439.94;10393207;28;20599;-39
2022/12/24 06:55:11;;;;;;;13.77;3.93;;;;;;;15.77;44.55;99418.44;10386268;28;20234;-38
2022/12/24 07:00:13;;;;;;;23.20;5.17;;;;;;;16.05;43.97;99418.66;10391551;28;20263;-39
2022/12/24 07:05:16;;;;;;;13.53;4.30;;;;;;;16.17;44.16;99437.59;10391861;28;20324;-38
2022/12/24 07:10:19;;;;;;;11.33;3.90;;;;;;;16.00;44.40;99469.81;10383788;28;20233;-39
2022/12/24 07:15:20;;;;;;;16.50;4.53;;;;;;;15.80;45.16;99471.94;10395578;28;20233;-38
2022/12/24 07:20:22;;;;;;;20.23;4.57;;;;;;;15.32;46.26;99471.63;10391967;28;20267;-39
2022/12/24 07:25:24;;;;;;;15.93;4.30;;;;;;;15.50;45.95;99460.03;10398855;28;20311;-38
2022/12/24 07:30:26;;;;;;;12.07;3.90;;;;;;;14.63;46.85;99440.31;10400946;28;20255;-38
2022/12/24 07:35:29;;;;;;;14.60;3.87;;;;;;;14.93;46.73;99456.66;10399612;28;20346;-39
2022/12/24 07:40:33;;;;;;;14.53;4.37;;;;;;;16.19;44.28;99432.78;10398810;28;20616;-39
2022/12/24 07:45:36;;;;;;;12.23;4.50;;;;;;;14.66;46.06;99456.88;10397816;28;20241;-39
2022/12/24 07:50:37;;;;;;;15.17;3.70;;;;;;;15.77;44.25;99448.91;10398488;28;20240;-39
2022/12/24 07:55:39;;;;;;;13.57;3.97;;;;;;;16.01;44.33;99444.47;10398947;28;20271;-39
2022/12/24 08:00:41;;;;;;;11.27;3.43;;;;;;;15.64;44.17;99459.88;10400764;28;20458;-38
2022/12/24 08:05:43;;;;;;;10.13;3.77;;;;;;;16.02;44.52;99472.28;10400130;28;20267;-39
2022/12/24 08:10:45;;;;;;;21.77;4.70;;;;;;;16.72;43.17;99481.66;10400804;28;20242;-39
2022/12/24 08:15:47;;;;;;;15.80;4.50;;;;;;;16.13;43.72;99486.84;10401345;28;20235;-39
2022/12/24 08:20:49;;;;;;;16.37;3.87;;;;;;;17.01;42.92;99476.44;10396749;28;20850;-38
2022/12/24 08:25:51;;;;;;;20.17;4.73;;;;;;;16.89;43.21;99484.53;10395512;28;20232;-38
2022/12/24 08:30:53;;;;;;;21.90;4.53;;;;;;;15.46;45.16;99501.94;10385183;28;20271;-38
2022/12/24 08:35:55;;;;;;;16.30;4.20;;;;;;;17.13;42.87;99431.31;10394256;28;20737;-38
2022/12/24 08:40:57;;;;;;;12.63;3.97;;;;;;;14.55;46.62;99501.47;10392791;28;20244;-38
2022/12/24 08:46:11;;;;;;;22.33;4.83;;;;;;;13.16;47.66;99432.94;10396068;28;20239;-39
2022/12/24 08:51:13;;;;;;;16.03;4.07;;;;;;;14.39;45.93;99504.66;10399588;28;20256;-39
2022/12/24 08:56:15;;;;;;;12.93;4.00;;;;;;;14.14;46.99;99518.09;10392034;28;20235;-39
2022/12/24 09:01:18;;;;;;;10.07;3.77;;;;;;;13.33;47.88;99479.84;10388993;28;20237;-39
2022/12/24 09:06:20;;;;;;;15.93;4.57;;;;;;;15.11;45.10;99510.56;10394366;28;21249;-39
2022/12/24 09:11:22;;;;;;;15.43;4.80;;;;;;;14.67;45.57;99528.50;10396111;28;20904;-41
2022/12/24 09:16:24;;;;;;;11.03;3.90;;;;;;;15.45;45.48;99529.97;10374776;28;20236;-40
2022/12/24 09:21:26;;;;;;;12.50;4.10;;;;;;;16.04;44.96;99489.06;10392545;28;20240;-37
2022/12/24 09:26:28;;;;;;;16.30;4.30;;;;;;;15.59;46.59;99510.97;10379734;28;20315;-39
2022/12/24 09:31:30;;;;;;;12.77;4.27;;;;;;;16.80;44.70;99457.00;10372826;28;21013;-39
2022/12/24 09:36:33;;;;;;;12.47;3.70;;;;;;;17.34;44.30;99473.13;10354101;28;20229;-39
2022/12/24 09:42:06;;;;;;;9.87;3.70;;;;;;;17.18;44.73;99472.78;10355354;28;20930;-39
2022/12/24 09:47:17;;;;;;;11.40;4.43;;;;;;;18.30;43.72;99475.34;10356907;28;20320;-39
2022/12/24 09:52:35;;;;;;;12.70;3.67;;;;;;;16.56;45.26;99518.28;10353532;28;20233;-38
2022/12/24 09:57:40;;;;;;;12.63;4.27;;;;;;;17.24;45.36;99516.16;10349089;28;20245;-39
2022/12/24 10:02:42;;;;;;;13.93;4.17;;;;;;;16.88;45.88;99516.09;10379126;28;20229;-37
2022/12/24 10:08:10;;;;;;;16.60;7.63;;;;;;;16.95;46.28;99516.03;10365964;28;20228;-40
2022/12/24 10:13:12;;;;;;;17.23;5.57;;;;;;;17.60;45.18;99506.97;10352178;28;20236;-41
2022/12/24 10:18:34;;;;;;;20.37;5.17;;;;;;;17.08;46.05;99534.72;10355256;28;20613;-38
2022/12/24 10:23:55;;;;;;;11.37;4.37;;;;;;;17.43;45.37;99487.94;10352053;28;20261;-38
2022/12/24 10:29:01;;;;;;;17.67;5.60;;;;;;;17.17;44.87;99473.00;10351612;28;20239;-39
2022/12/24 10:34:16;;;;;;;16.80;4.30;;;;;;;17.09;44.58;99512.06;10353962;28;20236;-41
2022/12/24 10:39:21;;;;;;;17.23;5.30;;;;;;;17.10;45.17;99526.38;10350442;28;20256;-38
2022/12/24 10:44:26;;;;;;;16.73;4.93;;;;;;;18.27;43.46;99470.38;10386915;28;20792;-38
2022/12/24 10:49:35;;;;;;;18.70;5.30;;;;;;;17.80;43.94;99503.91;10398281;28;20235;-38
2022/12/24 10:54:58;;;;;;;18.67;5.83;;;;;;;17.85;43.85;99530.22;10398645;28;20228;-38
2022/12/24 11:00:00;;;;;;;21.30;5.00;;;;;;;18.03;43.26;99542.78;10396742;28;20240;-39
2022/12/24 11:06:19;;;;;;;20.23;6.63;;;;;;;11.76;55.29;99635.50;10468666;28;21238;-68
2022/12/24 11:11:22;;;;;;;13.67;5.20;;;;;;;12.73;53.73;99579.19;10480820;28;20239;-67
2022/12/24 11:16:30;;;;;;;18.30;5.43;;;;;;;12.71;53.66;99559.78;10472050;28;20322;-67
2022/12/24 11:21:38;;;;;;;18.27;5.17;;;;;;;12.71;53.87;99567.84;10467880;28;20231;-67
2022/12/24 11:26:42;;;;;;;18.33;5.13;;;;;;;12.64;54.09;99549.03;10466502;28;20289;-67
2022/12/24 11:31:45;;;;;;;19.67;6.43;;;;;;;12.63;54.48;99544.69;10467254;28;20227;-68
2022/12/24 11:36:49;;;;;;;14.50;5.53;;;;;;;12.83;54.31;99535.84;10476525;28;20259;-68
2022/12/24 11:41:53;;;;;;;14.90;5.53;;;;;;;12.53;54.63;99581.84;10476663;28;20229;-67
2022/12/24 11:46:55;;;;;;;13.60;7.17;;;;;;;12.77;53.92;99564.31;10467567;28;20304;-66
2022/12/24 11:52:09;;;;;;;13.70;5.63;;;;;;;13.35;53.50;99507.34;10475573;28;20259;-69
2022/12/24 11:57:14;;;;;;;15.70;4.40;;;;;;;13.66;52.90;99509.31;10464642;28;20258;-68
2022/12/24 12:02:16;;;;;;;14.50;5.30;;;;;;;13.35;52.65;99536.09;10470824;28;20258;-67
2022/12/24 12:07:23;;;;;;;16.57;5.20;;;;;;;13.67;52.38;99524.41;10461447;28;21945;-67
2022/12/24 12:12:29;;;;;;;12.37;4.40;;;;;;;13.79;51.75;99524.59;10449752;28;21677;-68
2022/12/24 12:17:35;;;;;;;14.47;4.80;;;;;;;12.19;54.17;99565.59;10440036;28;20235;-67
2022/12/24 12:23:01;;;;;;;11.93;4.23;;;;;;;12.72;53.15;99583.75;10443001;28;20239;-67
2022/12/24 12:28:12;;;;;;;14.00;4.17;;;;;;;12.96;53.34;99549.28;10442921;28;20239;-67
2022/12/24 12:33:41;;;;;;;15.60;4.73;;;;;;;13.83;51.72;99511.53;10404568;22;20287;-39
2022/12/24 12:38:43;;;;;;;14.73;4.23;;;;;;;13.37;52.26;99553.63;10356031;28;20240;-39
2022/12/24 12:49:04;;;;;;;13.03;4.20;;;;;;;13.20;53.67;99547.00;10378175;28;20236;-37
2022/12/24 12:54:20;;;;;;;13.00;4.07;;;;;;;12.56;55.13;99554.59;10376537;28;20248;-37
2022/12/24 12:59:31;;;;;;;10.33;3.90;;;;;;;13.58;53.70;99512.25;10342630;28;20339;-37
2022/12/24 13:04:48;;;;;;;12.83;4.20;;;;;;;12.63;54.47;99584.94;10355561;28;20233;-37
2022/12/24 13:10:20;;;;;;;17.40;3.90;;;;;;;14.03;52.14;99525.72;10355543;28;20668;-37
2022/12/24 13:15:48;;;;;;;13.37;4.20;;;;;;;15.11;49.47;99532.13;10351816;28;20774;-37
2022/12/24 13:20:51;;;;;;;13.10;4.13;;;;;;;15.08;49.44;99524.53;10322038;28;20236;-37
2022/12/24 13:25:56;;;;;;;12.57;3.80;;;;;;;13.59;51.32;99651.00;10355765;28;20247;-38
2022/12/24 13:31:00;;;;;;;18.17;4.80;;;;;;;14.34;49.80;99629.16;10355614;28;20295;-37
2022/12/24 13:36:17;;;;;;;14.10;4.20;;;;;;;15.69;47.97;99578.72;10353123;28;20241;-37
2022/12/24 13:41:43;;;;;;;17.40;5.70;;;;;;;16.41;46.99;99556.50;10355630;28;20623;-37
2022/12/24 13:47:00;;;;;;;15.73;5.83;;;;;;;16.65;46.09;99562.81;10358261;28;20229;-38
2022/12/24 13:52:10;;;;;;;11.00;5.27;;;;;;;16.39;45.79;99537.00;10357181;28;20228;-37
2022/12/24 13:57:37;;;;;;;12.00;5.43;;;;;;;15.96;46.96;99587.34;10355927;28;20229;-37
2022/12/24 14:02:51;;;;;;;16.30;4.53;;;;;;;14.93;48.07;99642.53;10352633;28;20229;-37
2022/12/24 14:07:55;;;;;;;17.63;5.60;;;;;;;16.02;46.97;99564.84;10341163;28;20237;-37
2022/12/24 14:12:57;;;;;;;14.27;4.87;;;;;;;16.93;45.27;99545.94;10343817;28;20259;-38
2022/12/24 14:17:59;;;;;;;15.97;4.77;;;;;;;15.55;47.33;99607.69;10350382;28;20352;-38
2022/12/24 14:23:04;;;;;;;16.00;5.17;;;;;;;14.57;47.62;99625.09;10338077;28;20234;-37
2022/12/24 14:28:17;;;;;;;13.07;4.23;;;;;;;15.62;46.92;99611.16;10336598;28;20239;-37
2022/12/24 14:33:34;;;;;;;14.63;4.60;;;;;;;15.19;47.63;99636.16;10346093;28;20675;-38
2022/12/24 14:38:38;;;;;;;18.37;6.90;;;;;;;15.39;46.46;99614.44;10357343;28;20244;-37
2022/12/24 14:43:46;;;;;;;14.13;5.00;;;;;;;14.33;47.94;99657.09;10353155;28;20366;-37
2022/12/24 14:48:59;;;;;;;12.97;5.50;;;;;;;16.13;46.29;99584.88;10356116;28;20252;-37
2022/12/24 14:54:26;;;;;;;12.80;5.50;;;;;;;15.68;46.30;99598.66;10356374;28;20233;-37
2022/12/24 14:59:28;;;;;;;17.00;5.33;;;;;;;15.32;47.05;99637.94;10435405;28;20314;-37
2022/12/24 15:04:30;;;;;;;11.97;5.33;;;;;;;15.56;46.14;99612.03;10437670;28;20237;-38
2022/12/24 15:09:33;;;;;;;13.47;5.47;;;;;;;16.21;45.81;99586.41;10423358;28;20224;-37
2022/12/24 15:14:41;;;;;;;18.77;8.87;;;;;;;15.79;46.76;99616.81;10415984;28;20319;-37
2022/12/24 15:19:47;;;;;;;14.73;5.40;;;;;;;14.03;48.76;99681.75;10417419;28;20235;-38
2022/12/24 15:24:49;;;;;;;18.53;5.37;;;;;;;15.26;46.81;99623.44;10417066;28;20713;-37
2022/12/24 15:29:56;;;;;;;12.90;6.67;;;;;;;13.87;50.51;99681.38;10419142;28;20234;-37
2022/12/24 15:34:59;;;;;;;17.47;5.23;;;;;;;13.25;51.13;99695.00;10416725;28;20227;-37
2022/12/24 15:40:18;;;;;;;12.80;4.97;;;;;;;12.89;52.29;99694.28;10430869;28;20258;-37
2022/12/24 15:45:24;;;;;;;14.87;5.73;;;;;;;12.89;52.16;99712.25;10423857;28;20248;-36
2022/12/24 15:50:32;;;;;;;11.17;4.20;;;;;;;13.44;50.26;99682.63;10431414;28;20319;-37
2022/12/24 15:55:44;;;;;;;13.97;4.57;;;;;;;12.50;52.25;99668.97;10426174;28;20334;-38
2022/12/24 16:01:08;;;;;;;9.70;5.50;;;;;;;14.65;48.33;99646.41;10425515;28;20313;-37
2022/12/24 16:06:10;;;;;;;14.50;4.97;;;;;;;13.05;51.38;99703.84;10434502;28;20254;-37
2022/12/24 16:11:35;;;;;;;16.77;6.40;;;;;;;11.84;54.13;99665.88;10433524;28;20235;-37
2022/12/24 16:16:46;;;;;;;16.50;4.80;;;;;;;11.29;55.45;99665.59;10433099;28;20231;-37
2022/12/24 16:21:54;;;;;;;15.57;4.50;;;;;;;11.22;56.12;99700.34;10445929;28;20257;-37
2022/12/24 16:26:57;;;;;;;7.77;3.60;;;;;;;13.02;53.34;99633.56;10432197;28;20239;-37
2022/12/24 16:31:59;;;;;;;11.40;3.67;;;;;;;12.06;53.77;99729.13;10430423;28;20224;-37
2022/12/24 16:37:01;;;;;;;9.10;4.03;;;;;;;12.38;53.32;99718.81;10434920;28;20327;-37
2022/12/24 16:47:31;;;;;;;11.47;4.33;;;;;;;12.68;51.61;99713.22;10428362;28;20232;-37
2022/12/24 16:52:42;;;;;;;9.87;3.40;;;;;;;12.56;52.53;99718.31;10445380;28;20758;-37
2022/12/24 16:57:44;;;;;;;10.13;4.07;;;;;;;13.27;51.56;99728.69;10436231;28;20317;-37
2022/12/24 17:02:47;;;;;;;8.70;4.10;;;;;;;14.72;49.64;99622.94;10439332;28;20729;-37
2022/12/24 17:07:50;;;;;;;8.77;4.73;;;;;;;12.11;53.70;99734.72;10425438;28;20239;-37
2022/12/24 17:12:52;;;;;;;8.73;4.20;;;;;;;12.67;53.67;99725.81;10443490;28;20227;-37
2022/12/24 17:17:54;;;;;;;11.67;4.37;;;;;;;14.82;49.44;99635.97;10422804;28;20267;-37
2022/12/24 17:22:55;;;;;;;6.80;3.73;;;;;;;13.85;50.73;99674.38;10425352;28;20266;-37
2022/12/24 17:27:57;;;;;;;7.20;3.77;;;;;;;13.42;50.99;99751.91;10440375;28;20237;-37
2022/12/24 17:32:59;;;;;;;6.50;3.17;;;;;;;13.59;50.50;99737.03;10445867;28;20235;-37
2022/12/24 17:38:01;;;;;;;10.80;4.40;;;;;;;13.97;49.26;99730.19;10441197;28;20620;-37
2022/12/24 17:43:02;;;;;;;12.37;5.10;;;;;;;13.23;50.85;99753.50;10444190;28;20722;-37
2022/12/24 17:48:04;;;;;;;8.07;3.90;;;;;;;12.51;52.82;99756.50;10432792;28;20236;-37
2022/12/24 17:53:06;;;;;;;6.77;3.17;;;;;;;11.78;53.94;99758.63;10419887;28;20872;-37
2022/12/24 17:58:10;;;;;;;7.20;3.90;;;;;;;12.25;52.74;99778.59;10427576;28;20785;-37
2022/12/24 18:03:12;;;;;;;5.67;3.43;;;;;;;13.71;50.48;99650.38;10436924;28;20247;-37
2022/12/24 18:08:15;;;;;;;8.83;4.30;;;;;;;11.67;53.46;99738.53;10435076;28;20281;-37
2022/12/24 18:13:17;;;;;;;9.03;3.73;;;;;;;12.44;52.15;99781.63;10443648;28;20254;-37
2022/12/24 18:18:20;;;;;;;6.40;3.37;;;;;;;13.07;51.45;99717.06;10437981;28;20239;-37
2022/12/24 18:23:22;;;;;;;9.03;4.17;;;;;;;15.54;47.89;99665.34;10438527;28;20224;-37
2022/12/24 18:28:23;;;;;;;5.70;3.60;;;;;;;15.48;47.63;99696.69;10432178;28;20238;-37
2022/12/24 18:33:25;;;;;;;7.90;3.57;;;;;;;13.42;50.02;99803.78;10441220;28;20243;-37
2022/12/24 18:38:27;;;;;;;9.23;4.20;;;;;;;14.86;47.79;99684.84;10438477;28;20314;-37
2022/12/24 18:43:29;;;;;;;9.87;4.50;;;;;;;13.71;49.05;99784.81;10432605;28;20223;-37
2022/12/24 18:48:31;;;;;;;8.53;4.40;;;;;;;13.63;49.58;99794.75;10422866;28;20236;-38
2022/12/24 18:53:33;;;;;;;8.47;3.80;;;;;;;12.14;52.80;99793.38;10433806;28;20259;-37
2022/12/24 18:58:36;;;;;;;8.20;4.20;;;;;;;13.45;51.34;99717.38;10414503;28;20338;-36
2022/12/24 19:03:38;;;;;;;9.80;4.27;;;;;;;14.81;48.65;99655.03;10419721;28;20260;-37
2022/12/24 19:08:40;;;;;;;8.03;4.03;;;;;;;14.97;47.58;99711.13;10417296;28;20225;-38
2022/12/24 19:14:02;;;;;;;13.53;5.57;;;;;;;13.66;49.30;99793.50;10397973;28;20235;-37
2022/12/24 19:19:07;;;;;;;9.87;5.03;;;;;;;12.90;50.78;99811.41;10415916;28;20705;-37
2022/12/24 19:24:09;;;;;;;10.23;4.70;;;;;;;14.66;47.75;99719.94;10413585;28;20712;-37
2022/12/24 19:29:11;;;;;;;9.13;4.50;;;;;;;15.00;47.54;99742.19;10424670;28;20609;-37
2022/12/24 19:34:13;;;;;;;6.70;4.13;;;;;;;15.06;47.49;99749.44;10411416;28;20250;-37
2022/12/24 19:39:15;;;;;;;8.90;4.13;;;;;;;15.36;47.38;99735.38;10425144;28;20232;-37
2022/12/24 19:44:17;;;;;;;8.33;4.33;;;;;;;14.98;47.72;99757.75;10430920;28;20568;-37
2022/12/24 19:49:18;;;;;;;6.27;3.67;;;;;;;14.73;47.60;99785.41;10431348;28;20236;-37
2022/12/24 19:54:20;;;;;;;8.80;3.80;;;;;;;15.14;47.33;99771.56;10445287;28;20232;-37
2022/12/24 19:59:22;;;;;;;5.63;3.80;;;;;;;14.50;48.19;99812.78;10439866;28;20655;-38
2022/12/24 20:04:24;;;;;;;8.70;3.70;;;;;;;14.69;47.40;99809.19;10427499;28;20247;-37
2022/12/24 20:09:26;;;;;;;9.53;4.00;;;;;;;14.68;47.99;99796.78;10437261;28;20236;-37
2022/12/24 20:14:28;;;;;;;6.93;3.33;;;;;;;14.45;48.48;99804.50;10428735;28;20259;-37
2022/12/24 20:19:30;;;;;;;3.83;3.00;;;;;;;13.26;50.57;99831.84;10416824;28;20610;-37
2022/12/24 20:24:32;;;;;;;4.73;2.80;;;;;;;11.73;53.30;99796.72;10421064;28;20234;-37
2022/12/24 20:29:34;;;;;;;4.60;2.87;;;;;;;11.05;55.08;99788.13;10428394;28;20232;-37
2022/12/24 20:34:35;;;;;;;5.03;2.90;;;;;;;12.46;51.72;99852.84;10432374;28;20235;-36
2022/12/24 20:39:37;;;;;;;6.70;3.50;;;;;;;14.03;49.09;99773.25;10425873;28;20232;-38
2022/12/24 20:44:39;;;;;;;6.13;3.50;;;;;;;14.09;48.65;99790.47;10428798;28;20872;-37
2022/12/24 20:49:41;;;;;;;5.97;4.10;;;;;;;14.95;47.22;99754.44;10436741;28;20270;-37
2022/12/24 20:54:43;;;;;;;5.63;4.10;;;;;;;13.80;48.26;99838.22;10442578;28;20707;-37
2022/12/24 20:59:44;;;;;;;5.87;3.63;;;;;;;14.59;47.90;99835.75;10441298;28;20234;-37
2022/12/24 21:04:46;;;;;;;7.17;3.73;;;;;;;14.42;48.85;99815.69;10442832;28;20319;-37
2022/12/24 21:09:48;;;;;;;9.23;4.50;;;;;;;14.67;47.22;99799.69;10440374;28;20242;-38
2022/12/24 21:14:49;;;;;;;9.50;6.10;;;;;;;14.52;47.89;99814.22;10443350;28;20373;-37
2022/12/24 21:19:51;;;;;;;11.90;5.60;;;;;;;15.88;46.39;99819.69;10435238;28;20315;-37
2022/12/24 21:24:53;;;;;;;7.50;4.07;;;;;;;16.20;45.53;99803.44;10440746;28;20262;-37
2022/12/24 21:29:55;;;;;;;7.63;3.87;;;;;;;16.09;45.12;99801.47;10447163;28;20227;-37
2022/12/24 21:34:56;;;;;;;4.00;2.87;;;;;;;13.00;50.37;99858.59;10440507;28;20227;-37
2022/12/24 21:39:58;;;;;;;5.57;2.80;;;;;;;13.53;49.52;99863.38;10442392;28;20744;-37
2022/12/24 21:45:00;;;;;;;3.87;2.40;;;;;;;11.97;52.01;99803.53;10425024;28;20243;-37
2022/12/24 21:55:32;;;;;;;4.80;2.90;;;;;;;12.86;52.13;99803.97;10418659;28;20236;-37
2022/12/24 22:00:34;;;;;;;3.57;2.73;;;;;;;11.91;54.23;99800.81;10417172;28;20239;-37
2022/12/24 22:05:36;;;;;;;5.43;2.67;;;;;;;11.35;54.57;99788.06;10423207;28;20235;-37
2022/12/24 22:15:58;;;;;;;4.90;2.63;;;;;;;12.07;53.47;99786.31;10428176;28;20235;-37
2022/12/24 22:21:01;;;;;;;3.27;2.30;;;;;;;11.39;54.93;99797.41;10431199;28;20319;-37
2022/12/24 22:26:13;;;;;;;4.73;2.53;;;;;;;13.64;50.67;99691.53;10438944;28;20236;-37
2022/12/24 22:31:22;;;;;;;3.00;2.33;;;;;;;13.21;50.25;99742.09;10435270;28;20327;-37
2022/12/24 22:36:24;;;;;;;5.23;2.53;;;;;;;13.19;51.45;99728.88;10428900;28;20574;-37
2022/12/24 22:41:25;;;;;;;3.57;2.30;;;;;;;14.16;49.61;99691.72;10440336;28;20235;-37
2022/12/24 22:46:29;;;;;;;2.80;2.40;;;;;;;11.71;54.08;99803.28;10436641;28;20602;-37
2022/12/24 22:51:30;;;;;;;4.07;3.00;;;;;;;14.23;49.30;99690.88;10439944;28;20228;-37
2022/12/24 22:56:32;;;;;;;5.87;2.40;;;;;;;13.03;50.74;99799.91;10435484;28;20232;-36
2022/12/24 23:01:44;;;;;;;3.00;2.30;;;;;;;12.80;52.34;99775.22;10433346;28;20319;-37
2022/12/24 23:06:46;;;;;;;3.80;2.20;;;;;;;14.64;48.62;99701.28;10435426;28;20732;-36
2022/12/24 23:11:48;;;;;;;4.60;2.90;;;;;;;13.72;48.84;99775.75;10445885;28;20270;-36
2022/12/24 23:16:49;;;;;;;4.20;2.60;;;;;;;14.70;47.40;99735.47;10435179;28;20232;-35
2022/12/24 23:21:51;;;;;;;3.77;2.50;;;;;;;14.63;47.74;99761.59;10438936;28;20237;-35
2022/12/24 23:26:54;;;;;;;4.63;2.50;;;;;;;15.23;47.01;99712.00;10434763;28;20236;-35
2022/12/24 23:31:56;;;;;;;6.33;2.97;;;;;;;15.19;46.72;99724.28;10446661;28;20720;-35
2022/12/24 23:36:58;;;;;;;4.83;2.63;;;;;;;15.79;45.16;99738.19;10433464;28;20224;-36
2022/12/24 23:41:59;;;;;;;3.63;2.67;;;;;;;14.19;48.15;99822.34;10415053;28;20235;-36
2022/12/24 23:47:01;;;;;;;4.10;2.60;;;;;;;14.23;47.38;99785.06;10419197;28;20236;-36
2022/12/24 23:52:03;;;;;;;3.03;2.30;;;;;;;14.57;48.53;99763.25;10435047;28;20304;-35
2022/12/24 23:57:05;;;;;;;5.23;2.87;;;;;;;14.91;47.41;99723.59;10427352;28;20228;-36
